sensor_id;sensor_type;location;lat;lon;timestamp;pressure;altitude;pressure_sealevel;temperature;humidity
53546;BME280;39432;51.902;10.844;2023-02-23T00:01:41;99199.84;;;7.54;100.00
53546;BME280;39432;51.902;10.844;2023-02-23T00:04:11;99200.88;;;7.20;100.00
53546;BME280;39432;51.902;10.844;2023-02-23T00:06:40;99196.59;;;7.40;100.00
53546;BME280;39432;51.902;10.844;2023-02-23T00:09:10;99184.59;;;6.91;100.00
53546;BME280;39432;51.902;10.844;2023-02-23T00:11:49;99187.22;;;7.48;100.00
53546;BME280;39432;51.902;10.844;2023-02-23T00:14:18;99185.81;;;8.01;100.00
53546;BME280;39432;51.902;10.844;2023-02-23T00:16:52;99178.75;;;7.83;100.00
53546;BME280;39432;51.902;10.844;2023-02-23T00:19:22;99176.22;;;8.15;100.00
53546;BME280;39432;51.902;10.844;2023-02-23T00:21:53;99170.13;;;8.08;100.00
53546;BME280;39432;51.902;10.844;2023-02-23T00:24:24;99168.59;;;8.17;100.00
53546;BME280;39432;51.902;10.844;2023-02-23T00:26:55;99162.25;;;8.34;100.00
53546;BME280;39432;51.902;10.844;2023-02-23T00:29:25;99151.44;;;8.61;100.00
53546;BME280;39432;51.902;10.844;2023-02-23T00:31:58;99147.50;;;8.08;100.00
53546;BME280;39432;51.902;10.844;2023-02-23T00:34:28;99144.47;;;7.65;100.00
53546;BME280;39432;51.902;10.844;2023-02-23T00:36:57;99149.72;;;8.33;100.00
53546;BME280;39432;51.902;10.844;2023-02-23T00:39:27;99143.81;;;8.36;100.00
53546;BME280;39432;51.902;10.844;2023-02-23T00:41:57;99149.84;;;7.44;100.00
53546;BME280;39432;51.902;10.844;2023-02-23T00:44:29;99147.69;;;8.01;100.00
53546;BME280;39432;51.902;10.844;2023-02-23T00:47:04;99149.28;;;7.58;100.00
53546;BME280;39432;51.902;10.844;2023-02-23T00:49:33;99151.38;;;7.73;100.00
53546;BME280;39432;51.902;10.844;2023-02-23T00:52:04;99155.16;;;8.33;100.00
53546;BME280;39432;51.902;10.844;2023-02-23T00:54:33;99149.97;;;8.09;100.00
53546;BME280;39432;51.902;10.844;2023-02-23T00:57:03;99139.06;;;6.98;100.00
53546;BME280;39432;51.902;10.844;2023-02-23T00:59:32;99149.16;;;6.86;100.00
53546;BME280;39432;51.902;10.844;2023-02-23T01:02:05;99170.38;;;7.51;100.00
53546;BME280;39432;51.902;10.844;2023-02-23T01:04:34;99171.22;;;7.90;100.00
53546;BME280;39432;51.902;10.844;2023-02-23T01:07:04;99162.59;;;7.77;100.00
53546;BME280;39432;51.902;10.844;2023-02-23T01:09:33;99165.06;;;7.78;100.00
53546;BME280;39432;51.902;10.844;2023-02-23T01:12:04;99154.22;;;7.28;100.00
53546;BME280;39432;51.902;10.844;2023-02-23T01:14:34;99159.41;;;7.46;100.00
53546;BME280;39432;51.902;10.844;2023-02-23T01:17:07;99149.28;;;8.19;100.00
53546;BME280;39432;51.902;10.844;2023-02-23T01:19:37;99142.63;;;8.32;100.00
53546;BME280;39432;51.902;10.844;2023-02-23T01:22:06;99145.84;;;8.07;100.00
53546;BME280;39432;51.902;10.844;2023-02-23T01:24:38;99147.91;;;7.78;100.00
53546;BME280;39432;51.902;10.844;2023-02-23T01:27:08;99150.47;;;8.06;100.00
53546;BME280;39432;51.902;10.844;2023-02-23T01:29:38;99140.22;;;8.13;100.00
53546;BME280;39432;51.902;10.844;2023-02-23T01:32:10;99144.63;;;6.92;100.00
53546;BME280;39432;51.902;10.844;2023-02-23T01:34:40;99160.59;;;6.31;100.00
53546;BME280;39432;51.902;10.844;2023-02-23T01:37:12;99171.78;;;7.20;100.00
53546;BME280;39432;51.902;10.844;2023-02-23T01:39:41;99165.81;;;7.74;100.00
53546;BME280;39432;51.902;10.844;2023-02-23T01:42:11;99163.91;;;8.35;100.00
53546;BME280;39432;51.902;10.844;2023-02-23T01:45:14;99160.81;;;8.04;100.00
53546;BME280;39432;51.902;10.844;2023-02-23T01:47:49;99158.16;;;8.09;100.00
53546;BME280;39432;51.902;10.844;2023-02-23T01:50:21;99150.53;;;8.11;100.00
53546;BME280;39432;51.902;10.844;2023-02-23T01:52:51;99146.88;;;8.23;100.00
53546;BME280;39432;51.902;10.844;2023-02-23T01:55:22;99143.84;;;7.58;100.00
53546;BME280;39432;51.902;10.844;2023-02-23T01:57:58;99135.91;;;7.57;100.00
53546;BME280;39432;51.902;10.844;2023-02-23T02:00:30;99132.88;;;7.53;100.00
53546;BME280;39432;51.902;10.844;2023-02-23T02:03:11;99139.91;;;8.10;100.00
53546;BME280;39432;51.902;10.844;2023-02-23T02:05:42;99130.38;;;8.34;100.00
53546;BME280;39432;51.902;10.844;2023-02-23T02:08:14;99132.56;;;8.54;100.00
53546;BME280;39432;51.902;10.844;2023-02-23T02:10:44;99120.16;;;8.68;100.00
53546;BME280;39432;51.902;10.844;2023-02-23T02:13:24;99117.44;;;8.41;100.00
53546;BME280;39432;51.902;10.844;2023-02-23T02:16:08;99113.66;;;7.82;100.00
53546;BME280;39432;51.902;10.844;2023-02-23T02:18:53;99118.19;;;8.91;100.00
53546;BME280;39432;51.902;10.844;2023-02-23T02:21:51;99114.19;;;8.71;100.00
53546;BME280;39432;51.902;10.844;2023-02-23T02:24:53;99120.16;;;8.68;100.00
53546;BME280;39432;51.902;10.844;2023-02-23T02:27:47;99118.72;;;8.17;100.00
53546;BME280;39432;51.902;10.844;2023-02-23T02:30:42;99120.72;;;6.77;100.00
53546;BME280;39432;51.902;10.844;2023-02-23T02:33:31;99128.78;;;6.72;100.00
53546;BME280;39432;51.902;10.844;2023-02-23T02:36:21;99130.41;;;6.56;100.00
53546;BME280;39432;51.902;10.844;2023-02-23T02:39:01;99138.03;;;6.71;100.00
53546;BME280;39432;51.902;10.844;2023-02-23T02:41:43;99149.84;;;6.65;100.00
53546;BME280;39432;51.902;10.844;2023-02-23T02:44:26;99140.00;;;6.75;100.00
53546;BME280;39432;51.902;10.844;2023-02-23T02:47:03;99144.31;;;6.88;100.00
53546;BME280;39432;51.902;10.844;2023-02-23T02:49:41;99143.41;;;6.82;100.00
53546;BME280;39432;51.902;10.844;2023-02-23T02:52:17;99148.34;;;7.19;100.00
53546;BME280;39432;51.902;10.844;2023-02-23T02:54:52;99144.41;;;7.27;100.00
53546;BME280;39432;51.902;10.844;2023-02-23T02:57:26;99136.72;;;7.40;100.00
53546;BME280;39432;51.902;10.844;2023-02-23T02:59:57;99141.88;;;8.14;100.00
53546;BME280;39432;51.902;10.844;2023-02-23T03:02:40;99130.19;;;8.36;100.00
53546;BME280;39432;51.902;10.844;2023-02-23T03:05:24;99128.06;;;7.60;100.00
53546;BME280;39432;51.902;10.844;2023-02-23T03:08:16;99121.50;;;8.00;100.00
53546;BME280;39432;51.902;10.844;2023-02-23T03:11:05;99128.94;;;8.05;100.00
53546;BME280;39432;51.902;10.844;2023-02-23T03:14:01;99122.53;;;8.16;100.00
53546;BME280;39432;51.902;10.844;2023-02-23T03:16:55;99131.06;;;8.41;100.00
53546;BME280;39432;51.902;10.844;2023-02-23T03:19:49;99123.34;;;8.16;100.00
53546;BME280;39432;51.902;10.844;2023-02-23T03:22:39;99130.06;;;7.48;100.00
53546;BME280;39432;51.902;10.844;2023-02-23T03:25:31;99136.66;;;8.35;100.00
53546;BME280;39432;51.902;10.844;2023-02-23T03:28:23;99125.06;;;8.01;100.00
53546;BME280;39432;51.902;10.844;2023-02-23T03:31:12;99127.31;;;8.48;100.00
53546;BME280;39432;51.902;10.844;2023-02-23T03:34:02;99133.97;;;8.89;100.00
53546;BME280;39432;51.902;10.844;2023-02-23T03:36:51;99129.75;;;8.49;100.00
53546;BME280;39432;51.902;10.844;2023-02-23T03:39:40;99140.97;;;8.31;100.00
53546;BME280;39432;51.902;10.844;2023-02-23T03:42:27;99148.44;;;8.62;100.00
53546;BME280;39432;51.902;10.844;2023-02-23T03:45:16;99143.34;;;8.98;100.00
53546;BME280;39432;51.902;10.844;2023-02-23T03:48:02;99140.13;;;9.38;100.00
53546;BME280;39432;51.902;10.844;2023-02-23T03:50:48;99135.94;;;7.79;100.00
53546;BME280;39432;51.902;10.844;2023-02-23T03:53:39;99139.59;;;7.68;100.00
53546;BME280;39432;51.902;10.844;2023-02-23T03:56:25;99145.66;;;7.91;100.00
53546;BME280;39432;51.902;10.844;2023-02-23T03:59:09;99153.25;;;8.11;100.00
53546;BME280;39432;51.902;10.844;2023-02-23T04:01:56;99144.66;;;8.63;100.00
53546;BME280;39432;51.902;10.844;2023-02-23T04:04:41;99143.94;;;7.69;100.00
53546;BME280;39432;51.902;10.844;2023-02-23T04:07:25;99162.25;;;8.34;100.00
53546;BME280;39432;51.902;10.844;2023-02-23T04:10:09;99144.94;;;8.67;100.00
53546;BME280;39432;51.902;10.844;2023-02-23T04:12:56;99137.09;;;8.97;100.00
53546;BME280;39432;51.902;10.844;2023-02-23T04:15:46;99130.16;;;9.54;100.00
53546;BME280;39432;51.902;10.844;2023-02-23T04:18:20;99123.53;;;9.40;100.00
53546;BME280;39432;51.902;10.844;2023-02-23T04:20:52;99117.47;;;9.75;100.00
53546;BME280;39432;51.902;10.844;2023-02-23T04:23:22;99118.97;;;8.86;100.00
53546;BME280;39432;51.902;10.844;2023-02-23T04:25:53;99110.47;;;8.83;100.00
53546;BME280;39432;51.902;10.844;2023-02-23T04:28:25;99110.94;;;9.39;100.00
53546;BME280;39432;51.902;10.844;2023-02-23T04:30:54;99114.31;;;9.14;100.00
53546;BME280;39432;51.902;10.844;2023-02-23T04:33:27;99109.31;;;9.06;100.00
53546;BME280;39432;51.902;10.844;2023-02-23T04:35:56;99119.78;;;8.60;100.00
53546;BME280;39432;51.902;10.844;2023-02-23T04:38:26;99116.47;;;8.80;100.00
53546;BME280;39432;51.902;10.844;2023-02-23T04:40:56;99117.63;;;9.58;100.00
53546;BME280;39432;51.902;10.844;2023-02-23T04:43:25;99115.69;;;10.01;100.00
53546;BME280;39432;51.902;10.844;2023-02-23T04:45:55;99116.47;;;8.80;100.00
53546;BME280;39432;51.902;10.844;2023-02-23T04:48:27;99119.06;;;8.21;100.00
53546;BME280;39432;51.902;10.844;2023-02-23T04:50:57;99125.94;;;8.06;100.00
53546;BME280;39432;51.902;10.844;2023-02-23T04:53:26;99122.16;;;8.51;100.00
53546;BME280;39432;51.902;10.844;2023-02-23T04:55:56;99128.78;;;7.73;100.00
53546;BME280;39432;51.902;10.844;2023-02-23T04:58:25;99134.28;;;7.78;100.00
53546;BME280;39432;51.902;10.844;2023-02-23T05:01:03;99138.50;;;7.69;100.00
53546;BME280;39432;51.902;10.844;2023-02-23T05:03:35;99146.56;;;7.97;100.00
53546;BME280;39432;51.902;10.844;2023-02-23T05:06:05;99143.31;;;8.93;100.00
53546;BME280;39432;51.902;10.844;2023-02-23T05:08:35;99133.09;;;8.12;100.00
53546;BME280;39432;51.902;10.844;2023-02-23T05:11:05;99136.66;;;8.35;100.00
53546;BME280;39432;51.902;10.844;2023-02-23T05:13:35;99136.00;;;8.71;100.00
53546;BME280;39432;51.902;10.844;2023-02-23T05:16:06;99123.56;;;8.81;100.00
53546;BME280;39432;51.902;10.844;2023-02-23T05:18:38;99122.63;;;8.97;100.00
53546;BME280;39432;51.902;10.844;2023-02-23T05:21:09;99117.72;;;8.72;100.00
53546;BME280;39432;51.902;10.844;2023-02-23T05:23:39;99109.53;;;8.99;100.00
53546;BME280;39432;51.902;10.844;2023-02-23T05:26:11;99115.88;;;8.29;100.00
53546;BME280;39432;51.902;10.844;2023-02-23T05:28:41;99122.03;;;8.63;100.00
53546;BME280;39432;51.902;10.844;2023-02-23T05:31:11;99117.94;;;8.65;100.00
53546;BME280;39432;51.902;10.844;2023-02-23T05:33:43;99115.22;;;8.65;100.00
53546;BME280;39432;51.902;10.844;2023-02-23T05:36:16;99114.88;;;8.89;100.00
53546;BME280;39432;51.902;10.844;2023-02-23T05:38:47;99120.72;;;9.30;100.00
53546;BME280;39432;51.902;10.844;2023-02-23T05:41:19;99117.44;;;8.95;100.00
53546;BME280;39432;51.902;10.844;2023-02-23T05:43:50;99119.34;;;9.32;100.00
53546;BME280;39432;51.902;10.844;2023-02-23T05:46:23;99110.91;;;8.69;100.00
53546;BME280;39432;51.902;10.844;2023-02-23T05:48:58;99110.94;;;8.75;100.00
53546;BME280;39432;51.902;10.844;2023-02-23T05:51:30;99109.25;;;8.68;100.00
53546;BME280;39432;51.902;10.844;2023-02-23T05:54:00;99114.50;;;8.48;100.00
53546;BME280;39432;51.902;10.844;2023-02-23T05:56:29;99123.81;;;8.52;100.00
53546;BME280;39432;51.902;10.844;2023-02-23T05:58:59;99133.16;;;8.61;100.00
53546;BME280;39432;51.902;10.844;2023-02-23T06:01:31;99128.25;;;8.58;100.00
53546;BME280;39432;51.902;10.844;2023-02-23T06:04:03;99139.16;;;8.14;100.00
53546;BME280;39432;51.902;10.844;2023-02-23T06:06:33;99139.66;;;8.55;100.00
53546;BME280;39432;51.902;10.844;2023-02-23T06:09:03;99134.75;;;8.84;100.00
53546;BME280;39432;51.902;10.844;2023-02-23T06:11:32;99139.38;;;8.84;100.00
53546;BME280;39432;51.902;10.844;2023-02-23T06:14:02;99136.41;;;8.58;100.00
53546;BME280;39432;51.902;10.844;2023-02-23T06:16:31;99135.94;;;8.93;100.00
53546;BME280;39432;51.902;10.844;2023-02-23T06:19:04;99136.72;;;8.89;100.00
53546;BME280;39432;51.902;10.844;2023-02-23T06:21:33;99143.63;;;8.69;100.00
53546;BME280;39432;51.902;10.844;2023-02-23T06:24:04;99142.69;;;8.86;100.00
53546;BME280;39432;51.902;10.844;2023-02-23T06:26:33;99145.44;;;8.37;100.00
53546;BME280;39432;51.902;10.844;2023-02-23T06:29:03;99155.78;;;8.62;100.00
53546;BME280;39432;51.902;10.844;2023-02-23T06:31:33;99159.31;;;8.57;100.00
53546;BME280;39432;51.902;10.844;2023-02-23T06:34:05;99156.38;;;8.64;100.00
53546;BME280;39432;51.902;10.844;2023-02-23T06:36:35;99156.19;;;8.70;100.00
53546;BME280;39432;51.902;10.844;2023-02-23T06:39:05;99165.75;;;8.51;100.00
53546;BME280;39432;51.902;10.844;2023-02-23T06:41:35;99160.34;;;8.78;100.00
53546;BME280;39432;51.902;10.844;2023-02-23T06:44:04;99159.56;;;8.83;100.00
53546;BME280;39432;51.902;10.844;2023-02-23T06:46:34;99154.88;;;9.05;100.00
53546;BME280;39432;51.902;10.844;2023-02-23T06:49:06;99163.66;;;9.44;100.00
53546;BME280;39432;51.902;10.844;2023-02-23T06:51:36;99164.38;;;8.49;100.00
53546;BME280;39432;51.902;10.844;2023-02-23T06:54:05;99173.31;;;8.44;100.00
53546;BME280;39432;51.902;10.844;2023-02-23T06:56:35;99180.38;;;8.23;100.00
53546;BME280;39432;51.902;10.844;2023-02-23T06:59:04;99194.28;;;7.83;100.00
53546;BME280;39432;51.902;10.844;2023-02-23T07:01:34;99199.06;;;7.92;100.00
53546;BME280;39432;51.902;10.844;2023-02-23T07:04:06;99197.59;;;8.45;100.00
53546;BME280;39432;51.902;10.844;2023-02-23T07:06:36;99203.09;;;8.73;100.00
53546;BME280;39432;51.902;10.844;2023-02-23T07:09:06;99202.66;;;8.81;100.00
53546;BME280;39432;51.902;10.844;2023-02-23T07:11:36;99193.22;;;9.20;100.00
53546;BME280;39432;51.902;10.844;2023-02-23T07:14:09;99192.88;;;8.85;100.00
53546;BME280;39432;51.902;10.844;2023-02-23T07:16:52;99195.69;;;9.22;100.00
53546;BME280;39432;51.902;10.844;2023-02-23T07:19:25;99197.38;;;8.96;100.00
53546;BME280;39432;51.902;10.844;2023-02-23T07:21:54;99186.91;;;9.47;100.00
53546;BME280;39432;51.902;10.844;2023-02-23T07:24:24;99187.22;;;9.50;100.00
53546;BME280;39432;51.902;10.844;2023-02-23T07:26:54;99190.50;;;9.20;100.00
53546;BME280;39432;51.902;10.844;2023-02-23T07:29:23;99193.50;;;9.51;100.00
53546;BME280;39432;51.902;10.844;2023-02-23T07:31:54;99190.28;;;9.59;100.00
53546;BME280;39432;51.902;10.844;2023-02-23T07:34:26;99187.28;;;9.61;100.00
53546;BME280;39432;51.902;10.844;2023-02-23T07:36:56;99191.59;;;9.52;100.00
53546;BME280;39432;51.902;10.844;2023-02-23T07:39:25;99189.00;;;9.35;100.00
53546;BME280;39432;51.902;10.844;2023-02-23T07:41:56;99196.19;;;9.46;100.00
53546;BME280;39432;51.902;10.844;2023-02-23T07:44:27;99191.31;;;9.53;100.00
53546;BME280;39432;51.902;10.844;2023-02-23T07:46:57;99190.75;;;9.88;100.00
53546;BME280;39432;51.902;10.844;2023-02-23T07:49:29;99197.22;;;9.77;100.00
53546;BME280;39432;51.902;10.844;2023-02-23T07:51:59;99185.56;;;9.49;100.00
53546;BME280;39432;51.902;10.844;2023-02-23T07:54:28;99196.78;;;9.53;100.00
53546;BME280;39432;51.902;10.844;2023-02-23T07:56:58;99198.81;;;9.68;100.00
53546;BME280;39432;51.902;10.844;2023-02-23T07:59:28;99203.13;;;9.96;100.00
53546;BME280;39432;51.902;10.844;2023-02-23T08:01:58;99206.25;;;9.72;100.00
53546;BME280;39432;51.902;10.844;2023-02-23T08:04:30;99208.13;;;10.14;100.00
53546;BME280;39432;51.902;10.844;2023-02-23T08:07:00;99202.53;;;9.94;100.00
53546;BME280;39432;51.902;10.844;2023-02-23T08:09:29;99206.81;;;9.80;100.00
53546;BME280;39432;51.902;10.844;2023-02-23T08:12:00;99203.38;;;9.94;100.00
53546;BME280;39432;51.902;10.844;2023-02-23T08:14:30;99207.81;;;10.11;100.00
53546;BME280;39432;51.902;10.844;2023-02-23T08:17:00;99200.69;;;10.52;100.00
53546;BME280;39432;51.902;10.844;2023-02-23T08:19:32;99208.44;;;10.18;100.00
53546;BME280;39432;51.902;10.844;2023-02-23T08:22:03;99203.66;;;10.40;100.00
53546;BME280;39432;51.902;10.844;2023-02-23T08:24:35;99201.06;;;10.18;100.00
53546;BME280;39432;51.902;10.844;2023-02-23T08:27:05;99204.25;;;10.05;100.00
53546;BME280;39432;51.902;10.844;2023-02-23T08:29:35;99201.03;;;10.61;100.00
53546;BME280;39432;51.902;10.844;2023-02-23T08:32:05;99202.31;;;10.48;100.00
53546;BME280;39432;51.902;10.844;2023-02-23T08:34:40;99201.84;;;10.61;100.00
53546;BME280;39432;51.902;10.844;2023-02-23T08:37:10;99212.44;;;10.47;100.00
53546;BME280;39432;51.902;10.844;2023-02-23T08:39:40;99206.19;;;10.57;100.00
53546;BME280;39432;51.902;10.844;2023-02-23T08:42:10;99201.38;;;10.95;100.00
53546;BME280;39432;51.902;10.844;2023-02-23T08:44:40;99207.47;;;11.22;100.00
53546;BME280;39432;51.902;10.844;2023-02-23T08:47:10;99200.84;;;11.08;100.00
53546;BME280;39432;51.902;10.844;2023-02-23T08:49:44;99201.34;;;10.85;100.00
53546;BME280;39432;51.902;10.844;2023-02-23T08:52:14;99205.19;;;10.84;100.00
53546;BME280;39432;51.902;10.844;2023-02-23T08:54:44;99204.41;;;10.25;100.00
53546;BME280;39432;51.902;10.844;2023-02-23T08:57:13;99214.00;;;11.01;100.00
53546;BME280;39432;51.902;10.844;2023-02-23T08:59:43;99209.75;;;10.58;100.00
53546;BME280;39432;51.902;10.844;2023-02-23T09:02:13;99213.34;;;10.68;100.00
53546;BME280;39432;51.902;10.844;2023-02-23T09:04:45;99217.00;;;10.94;100.00
53546;BME280;39432;51.902;10.844;2023-02-23T09:07:16;99213.44;;;11.09;100.00
53546;BME280;39432;51.902;10.844;2023-02-23T09:09:52;99213.47;;;11.19;100.00
53546;BME280;39432;51.902;10.844;2023-02-23T09:12:22;99212.88;;;10.97;100.00
53546;BME280;39432;51.902;10.844;2023-02-23T09:14:51;99229.88;;;11.09;100.00
53546;BME280;39432;51.902;10.844;2023-02-23T09:17:22;99224.41;;;11.09;100.00
53546;BME280;39432;51.902;10.844;2023-02-23T09:19:54;99218.13;;;11.24;100.00
53546;BME280;39432;51.902;10.844;2023-02-23T09:22:24;99228.25;;;11.13;100.00
53546;BME280;39432;51.902;10.844;2023-02-23T09:24:54;99226.88;;;11.11;100.00
53546;BME280;39432;51.902;10.844;2023-02-23T09:27:24;99224.41;;;10.99;100.00
53546;BME280;39432;51.902;10.844;2023-02-23T09:29:53;99227.34;;;10.87;100.00
53546;BME280;39432;51.902;10.844;2023-02-23T09:32:23;99237.16;;;10.73;100.00
53546;BME280;39432;51.902;10.844;2023-02-23T09:34:55;99236.44;;;11.03;100.00
53546;BME280;39432;51.902;10.844;2023-02-23T09:37:25;99229.84;;;10.89;100.00
53546;BME280;39432;51.902;10.844;2023-02-23T09:39:55;99240.31;;;11.12;100.00
53546;BME280;39432;51.902;10.844;2023-02-23T09:42:32;99240.88;;;11.24;100.00
53546;BME280;39432;51.902;10.844;2023-02-23T09:45:20;99238.50;;;10.70;100.00
53546;BME280;39432;51.902;10.844;2023-02-23T09:48:06;99243.63;;;11.34;100.00
53546;BME280;39432;51.902;10.844;2023-02-23T09:50:44;99239.19;;;11.13;100.00
53546;BME280;39432;51.902;10.844;2023-02-23T09:53:28;99244.72;;;11.28;100.00
53546;BME280;39432;51.902;10.844;2023-02-23T09:56:03;99242.13;;;10.81;100.00
53546;BME280;39432;51.902;10.844;2023-02-23T09:58:37;99246.88;;;11.11;100.00
53546;BME280;39432;51.902;10.844;2023-02-23T10:01:20;99248.22;;;11.08;100.00
53546;BME280;39432;51.902;10.844;2023-02-23T10:03:55;99248.25;;;11.14;100.00
53546;BME280;39432;51.902;10.844;2023-02-23T10:06:30;99243.06;;;11.27;100.00
53546;BME280;39432;51.902;10.844;2023-02-23T10:09:07;99250.72;;;11.25;100.00
53546;BME280;39432;51.902;10.844;2023-02-23T10:11:44;99253.91;;;10.87;100.00
53546;BME280;39432;51.902;10.844;2023-02-23T10:14:25;99255.63;;;11.08;100.00
53546;BME280;39432;51.902;10.844;2023-02-23T10:17:09;99251.78;;;11.09;100.00
53546;BME280;39432;51.902;10.844;2023-02-23T10:19:46;99248.03;;;11.46;100.00
53546;BME280;39432;51.902;10.844;2023-02-23T10:22:21;99254.03;;;11.27;100.00
53546;BME280;39432;51.902;10.844;2023-02-23T10:24:54;99256.16;;;11.15;100.00
53546;BME280;39432;51.902;10.844;2023-02-23T10:27:31;99252.13;;;11.53;100.00
53546;BME280;39432;51.902;10.844;2023-02-23T10:30:17;99254.91;;;11.48;100.00
53546;BME280;39432;51.902;10.844;2023-02-23T10:32:52;99259.53;;;11.58;100.00
53546;BME280;39432;51.902;10.844;2023-02-23T10:35:22;99250.47;;;11.42;100.00
53546;BME280;39432;51.902;10.844;2023-02-23T10:37:55;99255.69;;;11.59;100.00
53546;BME280;39432;51.902;10.844;2023-02-23T10:40:27;99260.09;;;11.65;100.00
53546;BME280;39432;51.902;10.844;2023-02-23T10:42:59;99252.47;;;11.98;100.00
53546;BME280;39432;51.902;10.844;2023-02-23T10:45:34;99248.56;;;11.27;100.00
53546;BME280;39432;51.902;10.844;2023-02-23T10:48:06;99250.69;;;11.15;100.00
53546;BME280;39432;51.902;10.844;2023-02-23T10:50:37;99252.31;;;10.96;100.00
53546;BME280;39432;51.902;10.844;2023-02-23T10:53:14;99253.25;;;11.57;100.00
53546;BME280;39432;51.902;10.844;2023-02-23T10:55:46;99256.72;;;11.12;100.00
53546;BME280;39432;51.902;10.844;2023-02-23T10:58:28;99258.94;;;11.10;100.00
53546;BME280;39432;51.902;10.844;2023-02-23T11:00:59;99263.16;;;10.75;100.00
53546;BME280;39432;51.902;10.844;2023-02-23T11:03:33;99257.25;;;11.09;100.00
53546;BME280;39432;51.902;10.844;2023-02-23T11:06:26;99260.50;;;10.91;100.00
53546;BME280;39432;51.902;10.844;2023-02-23T11:09:17;99263.16;;;10.75;100.00
53546;BME280;39432;51.902;10.844;2023-02-23T11:12:15;99263.22;;;10.86;100.00
53546;BME280;39432;51.902;10.844;2023-02-23T11:14:48;99264.00;;;10.81;100.00
53546;BME280;39432;51.902;10.844;2023-02-23T11:17:29;99264.44;;;11.30;100.00
53546;BME280;39432;51.902;10.844;2023-02-23T11:20:03;99262.22;;;11.12;100.00
53546;BME280;39432;51.902;10.844;2023-02-23T11:22:35;99266.03;;;11.11;100.00
53546;BME280;39432;51.902;10.844;2023-02-23T11:25:16;99263.84;;;11.18;100.00
53546;BME280;39432;51.902;10.844;2023-02-23T11:27:48;99265.47;;;11.14;100.00
53546;BME280;39432;51.902;10.844;2023-02-23T11:30:24;99264.44;;;11.41;100.00
53546;BME280;39432;51.902;10.844;2023-02-23T11:32:58;99265.84;;;11.58;100.00
53546;BME280;39432;51.902;10.844;2023-02-23T11:35:36;99253.50;;;11.46;100.00
53546;BME280;39432;51.902;10.844;2023-02-23T11:38:15;99250.81;;;11.81;100.00
53546;BME280;39432;51.902;10.844;2023-02-23T11:41:00;99243.91;;;11.38;100.00
53546;BME280;39432;51.902;10.844;2023-02-23T11:43:30;99244.75;;;11.54;100.00
53546;BME280;39432;51.902;10.844;2023-02-23T11:46:02;99238.47;;;11.48;100.00
53546;BME280;39432;51.902;10.844;2023-02-23T11:48:33;99235.03;;;10.85;100.00
53546;BME280;39432;51.902;10.844;2023-02-23T11:51:06;99242.50;;;11.10;100.00
53546;BME280;39432;51.902;10.844;2023-02-23T11:53:38;99246.81;;;10.96;100.00
53546;BME280;39432;51.902;10.844;2023-02-23T11:56:11;99239.75;;;11.15;100.00
53546;BME280;39432;51.902;10.844;2023-02-23T11:58:50;99234.06;;;11.32;100.00
53546;BME280;39432;51.902;10.844;2023-02-23T12:01:25;99239.78;;;11.25;100.00
53546;BME280;39432;51.902;10.844;2023-02-23T12:04:03;99234.88;;;11.27;100.00
53546;BME280;39432;51.902;10.844;2023-02-23T12:06:35;99238.69;;;11.21;100.00
53546;BME280;39432;51.902;10.844;2023-02-23T12:09:14;99235.34;;;10.99;100.00
53546;BME280;39432;51.902;10.844;2023-02-23T12:11:53;99244.81;;;10.71;100.00
53546;BME280;39432;51.902;10.844;2023-02-23T12:14:30;99240.72;;;10.73;100.00
53546;BME280;39432;51.902;10.844;2023-02-23T12:17:05;99239.72;;;10.95;100.00
53546;BME280;39432;51.902;10.844;2023-02-23T12:19:39;99233.44;;;10.99;100.00
53546;BME280;39432;51.902;10.844;2023-02-23T12:22:14;99232.09;;;11.12;100.00
53546;BME280;39432;51.902;10.844;2023-02-23T12:24:50;99227.19;;;11.75;100.00
53546;BME280;39432;51.902;10.844;2023-02-23T12:27:25;99215.13;;;11.25;100.00
53546;BME280;39432;51.902;10.844;2023-02-23T12:30:03;99208.25;;;11.13;100.00
53546;BME280;39432;51.902;10.844;2023-02-23T12:32:43;99215.13;;;11.10;100.00
53546;BME280;39432;51.902;10.844;2023-02-23T12:35:18;99204.19;;;11.35;100.00
53546;BME280;39432;51.902;10.844;2023-02-23T12:37:52;99202.84;;;11.38;100.00
53546;BME280;39432;51.902;10.844;2023-02-23T12:40:26;99198.97;;;11.24;100.00
53546;BME280;39432;51.902;10.844;2023-02-23T12:43:06;99195.41;;;11.23;100.00
53546;BME280;39432;51.902;10.844;2023-02-23T12:45:44;99187.19;;;11.13;100.00
53546;BME280;39432;51.902;10.844;2023-02-23T12:48:28;99193.53;;;11.49;100.00
53546;BME280;39432;51.902;10.844;2023-02-23T12:51:05;99198.44;;;11.17;100.00
53546;BME280;39432;51.902;10.844;2023-02-23T12:53:40;99200.91;;;11.44;100.00
53546;BME280;39432;51.902;10.844;2023-02-23T12:56:19;99191.59;;;11.50;100.00
53546;BME280;39432;51.902;10.844;2023-02-23T12:59:00;99185.56;;;11.22;100.00
53546;BME280;39432;51.902;10.844;2023-02-23T13:01:35;99184.97;;;11.00;100.00
53546;BME280;39432;51.902;10.844;2023-02-23T13:04:17;99189.09;;;11.02;100.00
53546;BME280;39432;51.902;10.844;2023-02-23T13:06:55;99193.19;;;11.00;100.00
53546;BME280;39432;51.902;10.844;2023-02-23T13:09:39;99196.41;;;10.81;100.00
53546;BME280;39432;51.902;10.844;2023-02-23T13:12:39;99200.28;;;10.96;100.00
53546;BME280;39432;51.902;10.844;2023-02-23T13:15:22;99205.56;;;11.28;100.00
53546;BME280;39432;51.902;10.844;2023-02-23T13:18:01;99192.41;;;11.30;100.00
53546;BME280;39432;51.902;10.844;2023-02-23T13:20:36;99192.09;;;11.06;100.00
53546;BME280;39432;51.902;10.844;2023-02-23T13:23:13;99187.16;;;11.03;100.00
53546;BME280;39432;51.902;10.844;2023-02-23T13:25:50;99196.41;;;10.71;100.00